sensor_id;sensor_type;location;lat;lon;timestamp;P1;durP1;ratioP1;P2;durP2;ratioP2
39924;SDS011;25592;49.986;11.618;2023-04-01T00:01:52;2.88;;;0.80;;
39924;SDS011;25592;49.986;11.618;2023-04-01T00:04:38;4.78;;;0.95;;
39924;SDS011;25592;49.986;11.618;2023-04-01T00:07:23;2.05;;;1.33;;
39924;SDS011;25592;49.986;11.618;2023-04-01T00:10:14;6.45;;;0.98;;
39924;SDS011;25592;49.986;11.618;2023-04-01T00:13:00;1.95;;;0.93;;
39924;SDS011;25592;49.986;11.618;2023-04-01T00:15:45;5.07;;;2.58;;
39924;SDS011;25592;49.986;11.618;2023-04-01T00:18:31;5.15;;;2.65;;
39924;SDS011;25592;49.986;11.618;2023-04-01T00:21:17;3.83;;;0.93;;
39924;SDS011;25592;49.986;11.618;2023-04-01T00:24:03;3.75;;;0.73;;
39924;SDS011;25592;49.986;11.618;2023-04-01T00:26:48;4.35;;;0.80;;
39924;SDS011;25592;49.986;11.618;2023-04-01T00:29:34;2.78;;;0.82;;
39924;SDS011;25592;49.986;11.618;2023-04-01T00:32:19;3.17;;;0.52;;
39924;SDS011;25592;49.986;11.618;2023-04-01T00:35:04;3.60;;;1.80;;
39924;SDS011;25592;49.986;11.618;2023-04-01T00:37:51;1.60;;;0.60;;
39924;SDS011;25592;49.986;11.618;2023-04-01T00:40:39;2.53;;;1.45;;
39924;SDS011;25592;49.986;11.618;2023-04-01T00:43:26;4.82;;;1.05;;
39924;SDS011;25592;49.986;11.618;2023-04-01T00:46:11;2.28;;;0.73;;
39924;SDS011;25592;49.986;11.618;2023-04-01T00:48:57;4.95;;;0.85;;
39924;SDS011;25592;49.986;11.618;2023-04-01T00:51:42;6.38;;;1.00;;
39924;SDS011;25592;49.986;11.618;2023-04-01T00:54:31;1.52;;;0.77;;
39924;SDS011;25592;49.986;11.618;2023-04-01T00:57:23;4.32;;;0.80;;
39924;SDS011;25592;49.986;11.618;2023-04-01T01:00:12;3.30;;;1.48;;
39924;SDS011;25592;49.986;11.618;2023-04-01T01:02:59;3.78;;;0.95;;
39924;SDS011;25592;49.986;11.618;2023-04-01T01:05:55;7.65;;;1.42;;
39924;SDS011;25592;49.986;11.618;2023-04-01T01:19:03;3.83;;;1.00;;
39924;SDS011;25592;49.986;11.618;2023-04-01T01:25:12;4.95;;;0.90;;
39924;SDS011;25592;49.986;11.618;2023-04-01T01:37:38;6.65;;;0.77;;
39924;SDS011;25592;49.986;11.618;2023-04-01T01:40:26;5.15;;;0.98;;
39924;SDS011;25592;49.986;11.618;2023-04-01T01:43:14;7.90;;;1.55;;
39924;SDS011;25592;49.986;11.618;2023-04-01T01:46:05;6.15;;;2.65;;
39924;SDS011;25592;49.986;11.618;2023-04-01T01:48:54;2.78;;;0.90;;
39924;SDS011;25592;49.986;11.618;2023-04-01T01:51:41;4.22;;;0.85;;
39924;SDS011;25592;49.986;11.618;2023-04-01T01:54:27;7.75;;;1.30;;
39924;SDS011;25592;49.986;11.618;2023-04-01T01:57:13;6.63;;;1.58;;
39924;SDS011;25592;49.986;11.618;2023-04-01T02:00:02;6.05;;;1.30;;
39924;SDS011;25592;49.986;11.618;2023-04-01T02:02:57;3.83;;;1.20;;
39924;SDS011;25592;49.986;11.618;2023-04-01T02:05:43;4.22;;;0.85;;
39924;SDS011;25592;49.986;11.618;2023-04-01T02:08:51;4.22;;;0.70;;
39924;SDS011;25592;49.986;11.618;2023-04-01T02:11:56;4.93;;;0.93;;
39924;SDS011;25592;49.986;11.618;2023-04-01T02:15:01;3.63;;;0.90;;
39924;SDS011;25592;49.986;11.618;2023-04-01T02:17:51;3.40;;;0.90;;
39924;SDS011;25592;49.986;11.618;2023-04-01T02:20:37;3.50;;;1.00;;
39924;SDS011;25592;49.986;11.618;2023-04-01T02:23:23;5.53;;;1.45;;
39924;SDS011;25592;49.986;11.618;2023-04-01T02:26:09;17.15;;;2.08;;
39924;SDS011;25592;49.986;11.618;2023-04-01T02:28:57;4.15;;;0.80;;
39924;SDS011;25592;49.986;11.618;2023-04-01T02:31:45;2.85;;;0.75;;
39924;SDS011;25592;49.986;11.618;2023-04-01T02:34:31;4.97;;;1.17;;
39924;SDS011;25592;49.986;11.618;2023-04-01T02:37:18;2.28;;;0.65;;
39924;SDS011;25592;49.986;11.618;2023-04-01T02:40:04;5.90;;;1.10;;
39924;SDS011;25592;49.986;11.618;2023-04-01T02:42:51;3.03;;;0.70;;
39924;SDS011;25592;49.986;11.618;2023-04-01T02:45:37;2.63;;;0.90;;
39924;SDS011;25592;49.986;11.618;2023-04-01T02:48:22;3.03;;;1.10;;
39924;SDS011;25592;49.986;11.618;2023-04-01T02:51:08;3.35;;;0.80;;
39924;SDS011;25592;49.986;11.618;2023-04-01T02:53:53;2.13;;;0.70;;
39924;SDS011;25592;49.986;11.618;2023-04-01T02:56:39;2.13;;;1.13;;
39924;SDS011;25592;49.986;11.618;2023-04-01T02:59:24;5.18;;;1.35;;
39924;SDS011;25592;49.986;11.618;2023-04-01T03:02:10;3.17;;;0.73;;
39924;SDS011;25592;49.986;11.618;2023-04-01T03:04:55;3.53;;;0.93;;
39924;SDS011;25592;49.986;11.618;2023-04-01T03:07:40;5.28;;;1.30;;
39924;SDS011;25592;49.986;11.618;2023-04-01T03:10:26;2.55;;;0.80;;
39924;SDS011;25592;49.986;11.618;2023-04-01T03:13:11;3.60;;;0.80;;
39924;SDS011;25592;49.986;11.618;2023-04-01T03:15:56;1.77;;;0.77;;
39924;SDS011;25592;49.986;11.618;2023-04-01T03:18:42;3.22;;;0.75;;
39924;SDS011;25592;49.986;11.618;2023-04-01T03:21:28;8.40;;;2.17;;
39924;SDS011;25592;49.986;11.618;2023-04-01T03:24:13;1.80;;;0.80;;
39924;SDS011;25592;49.986;11.618;2023-04-01T03:26:59;4.68;;;1.13;;
39924;SDS011;25592;49.986;11.618;2023-04-01T03:29:44;10.07;;;1.45;;
39924;SDS011;25592;49.986;11.618;2023-04-01T03:32:29;2.38;;;0.70;;
39924;SDS011;25592;49.986;11.618;2023-04-01T03:35:15;1.70;;;0.60;;
39924;SDS011;25592;49.986;11.618;2023-04-01T03:38:00;4.18;;;0.70;;
39924;SDS011;25592;49.986;11.618;2023-04-01T03:40:46;5.72;;;0.73;;
39924;SDS011;25592;49.986;11.618;2023-04-01T03:43:31;3.90;;;1.15;;
39924;SDS011;25592;49.986;11.618;2023-04-01T03:46:18;2.22;;;0.80;;
39924;SDS011;25592;49.986;11.618;2023-04-01T03:49:08;3.47;;;0.73;;
39924;SDS011;25592;49.986;11.618;2023-04-01T03:51:57;2.67;;;0.80;;
39924;SDS011;25592;49.986;11.618;2023-04-01T03:54:43;4.68;;;0.88;;
39924;SDS011;25592;49.986;11.618;2023-04-01T03:57:30;2.92;;;0.75;;
39924;SDS011;25592;49.986;11.618;2023-04-01T04:00:16;5.85;;;1.27;;
39924;SDS011;25592;49.986;11.618;2023-04-01T04:03:02;5.30;;;1.67;;
39924;SDS011;25592;49.986;11.618;2023-04-01T04:05:48;3.63;;;1.13;;
39924;SDS011;25592;49.986;11.618;2023-04-01T04:08:34;4.32;;;1.30;;
39924;SDS011;25592;49.986;11.618;2023-04-01T04:11:20;3.28;;;0.75;;
39924;SDS011;25592;49.986;11.618;2023-04-01T04:14:06;2.33;;;0.68;;
39924;SDS011;25592;49.986;11.618;2023-04-01T04:16:52;3.90;;;1.25;;
39924;SDS011;25592;49.986;11.618;2023-04-01T04:19:37;1.98;;;0.52;;
39924;SDS011;25592;49.986;11.618;2023-04-01T04:22:23;4.78;;;1.10;;
39924;SDS011;25592;49.986;11.618;2023-04-01T04:25:08;1.88;;;1.45;;
39924;SDS011;25592;49.986;11.618;2023-04-01T04:27:54;3.55;;;0.95;;
39924;SDS011;25592;49.986;11.618;2023-04-01T04:30:39;3.97;;;0.70;;
39924;SDS011;25592;49.986;11.618;2023-04-01T04:33:25;6.22;;;1.67;;
39924;SDS011;25592;49.986;11.618;2023-04-01T04:36:10;3.20;;;0.75;;
39924;SDS011;25592;49.986;11.618;2023-04-01T04:38:57;3.20;;;0.65;;
39924;SDS011;25592;49.986;11.618;2023-04-01T04:41:46;2.72;;;0.75;;
39924;SDS011;25592;49.986;11.618;2023-04-01T04:44:31;4.10;;;1.05;;
39924;SDS011;25592;49.986;11.618;2023-04-01T04:47:17;3.10;;;0.80;;
39924;SDS011;25592;49.986;11.618;2023-04-01T04:50:02;2.70;;;0.77;;
39924;SDS011;25592;49.986;11.618;2023-04-01T04:52:48;4.35;;;1.90;;
39924;SDS011;25592;49.986;11.618;2023-04-01T04:55:33;6.22;;;1.70;;
39924;SDS011;25592;49.986;11.618;2023-04-01T04:58:19;5.35;;;0.95;;
39924;SDS011;25592;49.986;11.618;2023-04-01T05:01:05;5.35;;;1.50;;
39924;SDS011;25592;49.986;11.618;2023-04-01T05:03:55;2.17;;;0.60;;
39924;SDS011;25592;49.986;11.618;2023-04-01T05:06:41;3.38;;;0.88;;
39924;SDS011;25592;49.986;11.618;2023-04-01T05:09:27;3.25;;;0.80;;
39924;SDS011;25592;49.986;11.618;2023-04-01T05:12:12;4.03;;;0.75;;
39924;SDS011;25592;49.986;11.618;2023-04-01T05:14:58;3.10;;;0.93;;
39924;SDS011;25592;49.986;11.618;2023-04-01T05:17:43;5.00;;;1.60;;
39924;SDS011;25592;49.986;11.618;2023-04-01T05:20:29;5.53;;;1.50;;
39924;SDS011;25592;49.986;11.618;2023-04-01T05:23:14;5.88;;;1.60;;
39924;SDS011;25592;49.986;11.618;2023-04-01T05:26:04;6.32;;;1.13;;
39924;SDS011;25592;49.986;11.618;2023-04-01T05:28:50;4.13;;;0.95;;
39924;SDS011;25592;49.986;11.618;2023-04-01T05:31:36;3.85;;;0.95;;
39924;SDS011;25592;49.986;11.618;2023-04-01T05:34:21;4.68;;;1.55;;
39924;SDS011;25592;49.986;11.618;2023-04-01T05:37:06;4.10;;;1.05;;
39924;SDS011;25592;49.986;11.618;2023-04-01T05:39:52;3.35;;;1.02;;
39924;SDS011;25592;49.986;11.618;2023-04-01T05:42:37;4.95;;;1.02;;
39924;SDS011;25592;49.986;11.618;2023-04-01T05:45:23;5.45;;;1.10;;
39924;SDS011;25592;49.986;11.618;2023-04-01T05:48:08;4.22;;;1.45;;
39924;SDS011;25592;49.986;11.618;2023-04-01T05:50:54;6.60;;;2.15;;
39924;SDS011;25592;49.986;11.618;2023-04-01T05:53:40;13.73;;;3.90;;
39924;SDS011;25592;49.986;11.618;2023-04-01T05:56:25;6.88;;;1.38;;
39924;SDS011;25592;49.986;11.618;2023-04-01T05:59:11;2.75;;;0.95;;
39924;SDS011;25592;49.986;11.618;2023-04-01T06:01:57;7.35;;;1.20;;
39924;SDS011;25592;49.986;11.618;2023-04-01T06:04:43;5.20;;;0.88;;
39924;SDS011;25592;49.986;11.618;2023-04-01T06:07:29;2.78;;;0.90;;
39924;SDS011;25592;49.986;11.618;2023-04-01T06:10:18;4.70;;;1.17;;
39924;SDS011;25592;49.986;11.618;2023-04-01T06:13:13;8.23;;;3.15;;
39924;SDS011;25592;49.986;11.618;2023-04-01T06:19:09;6.20;;;1.77;;
39924;SDS011;25592;49.986;11.618;2023-04-01T06:37:45;3.47;;;1.17;;
39924;SDS011;25592;49.986;11.618;2023-04-01T06:44:23;5.40;;;0.98;;
39924;SDS011;25592;49.986;11.618;2023-04-01T06:50:36;4.45;;;0.52;;
39924;SDS011;25592;49.986;11.618;2023-04-01T06:53:36;2.90;;;0.90;;
39924;SDS011;25592;49.986;11.618;2023-04-01T06:56:31;1.75;;;0.50;;
39924;SDS011;25592;49.986;11.618;2023-04-01T06:59:19;4.57;;;0.93;;
39924;SDS011;25592;49.986;11.618;2023-04-01T07:04:54;3.95;;;1.08;;
39924;SDS011;25592;49.986;11.618;2023-04-01T07:07:46;3.30;;;0.88;;
39924;SDS011;25592;49.986;11.618;2023-04-01T07:13:45;3.88;;;0.75;;
39924;SDS011;25592;49.986;11.618;2023-04-01T07:16:37;7.68;;;1.73;;
39924;SDS011;25592;49.986;11.618;2023-04-01T07:19:32;3.15;;;0.85;;
39924;SDS011;25592;49.986;11.618;2023-04-01T07:22:29;8.98;;;1.88;;
39924;SDS011;25592;49.986;11.618;2023-04-01T07:25:43;4.90;;;1.70;;
39924;SDS011;25592;49.986;11.618;2023-04-01T07:28:31;8.00;;;2.08;;
39924;SDS011;25592;49.986;11.618;2023-04-01T07:34:19;2.97;;;1.08;;
39924;SDS011;25592;49.986;11.618;2023-04-01T07:40:31;5.20;;;1.73;;
39924;SDS011;25592;49.986;11.618;2023-04-01T07:52:40;2.25;;;1.00;;
39924;SDS011;25592;49.986;11.618;2023-04-01T07:55:50;2.42;;;0.85;;
39924;SDS011;25592;49.986;11.618;2023-04-01T08:01:49;4.55;;;0.98;;
39924;SDS011;25592;49.986;11.618;2023-04-01T08:11:14;5.95;;;1.85;;
39924;SDS011;25592;49.986;11.618;2023-04-01T08:17:15;1.58;;;0.40;;
39924;SDS011;25592;49.986;11.618;2023-04-01T08:23:19;1.88;;;0.80;;
39924;SDS011;25592;49.986;11.618;2023-04-01T08:32:22;2.33;;;0.98;;
39924;SDS011;25592;49.986;11.618;2023-04-01T08:44:28;4.57;;;0.90;;
39924;SDS011;25592;49.986;11.618;2023-04-01T08:57:10;2.45;;;0.70;;
39924;SDS011;25592;49.986;11.618;2023-04-01T09:03:25;3.03;;;0.80;;
39924;SDS011;25592;49.986;11.618;2023-04-01T09:09:46;2.08;;;0.88;;
39924;SDS011;25592;49.986;11.618;2023-04-01T09:16:23;2.47;;;0.73;;
39924;SDS011;25592;49.986;11.618;2023-04-01T09:19:24;2.63;;;0.52;;
39924;SDS011;25592;49.986;11.618;2023-04-01T09:40:41;2.55;;;0.60;;
39924;SDS011;25592;49.986;11.618;2023-04-01T09:52:44;2.30;;;0.47;;
39924;SDS011;25592;49.986;11.618;2023-04-01T10:01:48;1.15;;;0.70;;
39924;SDS011;25592;49.986;11.618;2023-04-01T10:13:55;1.35;;;0.60;;
39924;SDS011;25592;49.986;11.618;2023-04-01T10:26:58;3.33;;;0.57;;
39924;SDS011;25592;49.986;11.618;2023-04-01T10:33:27;0.68;;;0.40;;
39924;SDS011;25592;49.986;11.618;2023-04-01T10:36:40;1.50;;;0.50;;
39924;SDS011;25592;49.986;11.618;2023-04-01T11:03:00;0.73;;;0.40;;
39924;SDS011;25592;49.986;11.618;2023-04-01T11:24:08;1.38;;;0.50;;
39924;SDS011;25592;49.986;11.618;2023-04-01T11:27:29;0.43;;;0.30;;
39924;SDS011;25592;49.986;11.618;2023-04-01T11:30:36;1.73;;;0.30;;
39924;SDS011;25592;49.986;11.618;2023-04-01T11:33:50;2.53;;;0.60;;
39924;SDS011;25592;49.986;11.618;2023-04-01T11:46:25;0.88;;;0.50;;
39924;SDS011;25592;49.986;11.618;2023-04-01T11:55:47;1.70;;;0.57;;
39924;SDS011;25592;49.986;11.618;2023-04-01T12:07:53;0.93;;;0.50;;
39924;SDS011;25592;49.986;11.618;2023-04-01T12:11:07;0.52;;;0.28;;
39924;SDS011;25592;49.986;11.618;2023-04-01T12:17:19;1.13;;;0.30;;
39924;SDS011;25592;49.986;11.618;2023-04-01T12:23:12;1.20;;;0.70;;
39924;SDS011;25592;49.986;11.618;2023-04-01T12:26:25;1.27;;;0.63;;
39924;SDS011;25592;49.986;11.618;2023-04-01T12:42:00;1.15;;;0.60;;
39924;SDS011;25592;49.986;11.618;2023-04-01T12:45:15;1.10;;;0.70;;
39924;SDS011;25592;49.986;11.618;2023-04-01T12:50:58;0.40;;;0.40;;
39924;SDS011;25592;49.986;11.618;2023-04-01T12:54:47;0.85;;;0.50;;
39924;SDS011;25592;49.986;11.618;2023-04-01T13:16:08;1.65;;;0.70;;
39924;SDS011;25592;49.986;11.618;2023-04-01T13:19:08;1.27;;;0.60;;
39924;SDS011;25592;49.986;11.618;2023-04-01T13:22:15;1.23;;;0.95;;
39924;SDS011;25592;49.986;11.618;2023-04-01T13:28:17;3.20;;;0.80;;
39924;SDS011;25592;49.986;11.618;2023-04-01T13:34:30;1.45;;;0.73;;
39924;SDS011;25592;49.986;11.618;2023-04-01T13:37:27;1.70;;;0.90;;
39924;SDS011;25592;49.986;11.618;2023-04-01T13:40:41;1.67;;;0.68;;
39924;SDS011;25592;49.986;11.618;2023-04-01T13:43:49;0.93;;;0.60;;
39924;SDS011;25592;49.986;11.618;2023-04-01T13:46:47;4.18;;;1.58;;
39924;SDS011;25592;49.986;11.618;2023-04-01T13:51:08;1.50;;;0.68;;
39924;SDS011;25592;49.986;11.618;2023-04-01T13:53:34;2.25;;;1.15;;
39924;SDS011;25592;49.986;11.618;2023-04-01T14:18:45;2.70;;;0.60;;
39924;SDS011;25592;49.986;11.618;2023-04-01T14:21:58;1.10;;;0.52;;
39924;SDS011;25592;49.986;11.618;2023-04-01T14:37:37;2.53;;;0.68;;
39924;SDS011;25592;49.986;11.618;2023-04-01T14:40:54;0.85;;;0.50;;
39924;SDS011;25592;49.986;11.618;2023-04-01T14:50:24;0.65;;;0.60;;
39924;SDS011;25592;49.986;11.618;2023-04-01T14:53:16;1.02;;;0.68;;
39924;SDS011;25592;49.986;11.618;2023-04-01T14:56:08;1.73;;;0.80;;
39924;SDS011;25592;49.986;11.618;2023-04-01T14:58:57;1.27;;;0.80;;
39924;SDS011;25592;49.986;11.618;2023-04-01T15:02:03;2.03;;;0.90;;
39924;SDS011;25592;49.986;11.618;2023-04-01T15:08:29;1.77;;;0.80;;
39924;SDS011;25592;49.986;11.618;2023-04-01T15:17:16;1.95;;;0.90;;
39924;SDS011;25592;49.986;11.618;2023-04-01T15:23:28;1.50;;;0.90;;
39924;SDS011;25592;49.986;11.618;2023-04-01T15:32:45;1.33;;;0.80;;
39924;SDS011;25592;49.986;11.618;2023-04-01T15:47:42;1.58;;;0.70;;
39924;SDS011;25592;49.986;11.618;2023-04-01T15:50:54;2.60;;;0.90;;
39924;SDS011;25592;49.986;11.618;2023-04-01T15:54:40;1.02;;;0.70;;
39924;SDS011;25592;49.986;11.618;2023-04-01T16:12:07;2.45;;;1.10;;
39924;SDS011;25592;49.986;11.618;2023-04-01T16:18:18;6.13;;;2.13;;
39924;SDS011;25592;49.986;11.618;2023-04-01T16:21:13;2.03;;;1.17;;
39924;SDS011;25592;49.986;11.618;2023-04-01T16:24:13;3.30;;;1.30;;
39924;SDS011;25592;49.986;11.618;2023-04-01T16:27:14;1.52;;;0.93;;
39924;SDS011;25592;49.986;11.618;2023-04-01T16:42:31;2.45;;;0.90;;
39924;SDS011;25592;49.986;11.618;2023-04-01T16:48:14;2.38;;;1.00;;
39924;SDS011;25592;49.986;11.618;2023-04-01T16:51:09;4.15;;;1.10;;
39924;SDS011;25592;49.986;11.618;2023-04-01T16:54:04;1.80;;;0.95;;
39924;SDS011;25592;49.986;11.618;2023-04-01T16:59:55;2.58;;;1.35;;
39924;SDS011;25592;49.986;11.618;2023-04-01T17:05:54;2.70;;;1.38;;
39924;SDS011;25592;49.986;11.618;2023-04-01T17:30:42;5.47;;;2.17;;
39924;SDS011;25592;49.986;11.618;2023-04-01T17:39:47;2.03;;;1.20;;
39924;SDS011;25592;49.986;11.618;2023-04-01T17:49:33;1.88;;;0.80;;
39924;SDS011;25592;49.986;11.618;2023-04-01T17:52:27;5.38;;;1.20;;
39924;SDS011;25592;49.986;11.618;2023-04-01T18:01:49;2.08;;;1.10;;
39924;SDS011;25592;49.986;11.618;2023-04-01T18:07:52;2.55;;;1.38;;
39924;SDS011;25592;49.986;11.618;2023-04-01T18:17:18;2.58;;;1.40;;
39924;SDS011;25592;49.986;11.618;2023-04-01T18:26:49;1.98;;;1.20;;
39924;SDS011;25592;49.986;11.618;2023-04-01T18:29:48;3.70;;;1.40;;
39924;SDS011;25592;49.986;11.618;2023-04-01T18:32:43;2.65;;;1.27;;
39924;SDS011;25592;49.986;11.618;2023-04-01T18:35:47;3.17;;;1.45;;
39924;SDS011;25592;49.986;11.618;2023-04-01T18:38:55;3.97;;;1.67;;
39924;SDS011;25592;49.986;11.618;2023-04-01T18:44:57;3.67;;;1.50;;
39924;SDS011;25592;49.986;11.618;2023-04-01T18:51:10;2.58;;;1.42;;
39924;SDS011;25592;49.986;11.618;2023-04-01T18:54:04;3.38;;;1.50;;
39924;SDS011;25592;49.986;11.618;2023-04-01T18:57:00;2.22;;;1.30;;
39924;SDS011;25592;49.986;11.618;2023-04-01T18:59:53;5.43;;;2.58;;
39924;SDS011;25592;49.986;11.618;2023-04-01T19:15:49;4.85;;;1.83;;
39924;SDS011;25592;49.986;11.618;2023-04-01T19:19:02;2.97;;;1.92;;
39924;SDS011;25592;49.986;11.618;2023-04-01T19:22:13;3.55;;;2.33;;
39924;SDS011;25592;49.986;11.618;2023-04-01T19:37:36;2.83;;;1.60;;
39924;SDS011;25592;49.986;11.618;2023-04-01T19:40:37;3.08;;;1.77;;
39924;SDS011;25592;49.986;11.618;2023-04-01T19:46:48;2.35;;;1.50;;
39924;SDS011;25592;49.986;11.618;2023-04-01T19:52:45;3.83;;;2.00;;
39924;SDS011;25592;49.986;11.618;2023-04-01T19:55:37;3.60;;;2.00;;
39924;SDS011;25592;49.986;11.618;2023-04-01T19:58:34;2.25;;;1.45;;
39924;SDS011;25592;49.986;11.618;2023-04-01T20:04:40;3.72;;;2.45;;
39924;SDS011;25592;49.986;11.618;2023-04-01T20:07:38;4.60;;;2.83;;
39924;SDS011;25592;49.986;11.618;2023-04-01T20:10:31;3.08;;;2.15;;
39924;SDS011;25592;49.986;11.618;2023-04-01T20:13:36;3.28;;;2.33;;
39924;SDS011;25592;49.986;11.618;2023-04-01T20:25:33;3.63;;;2.20;;
39924;SDS011;25592;49.986;11.618;2023-04-01T20:29:02;3.20;;;1.90;;
39924;SDS011;25592;49.986;11.618;2023-04-01T20:37:58;3.75;;;2.58;;
39924;SDS011;25592;49.986;11.618;2023-04-01T20:41:03;2.70;;;1.90;;
39924;SDS011;25592;49.986;11.618;2023-04-01T20:44:12;4.10;;;2.17;;
39924;SDS011;25592;49.986;11.618;2023-04-01T20:50:06;4.95;;;1.92;;
39924;SDS011;25592;49.986;11.618;2023-04-01T20:56:20;5.43;;;3.63;;
39924;SDS011;25592;49.986;11.618;2023-04-01T21:02:25;7.35;;;5.13;;
39924;SDS011;25592;49.986;11.618;2023-04-01T21:11:25;4.32;;;2.78;;
39924;SDS011;25592;49.986;11.618;2023-04-01T21:17:39;3.83;;;2.17;;
39924;SDS011;25592;49.986;11.618;2023-04-01T21:29:40;3.03;;;1.60;;
39924;SDS011;25592;49.986;11.618;2023-04-01T21:39:22;3.40;;;1.60;;
39924;SDS011;25592;49.986;11.618;2023-04-01T21:52:10;3.03;;;1.58;;
39924;SDS011;25592;49.986;11.618;2023-04-01T21:55:28;5.57;;;2.05;;
39924;SDS011;25592;49.986;11.618;2023-04-01T22:07:17;3.67;;;2.60;;
39924;SDS011;25592;49.986;11.618;2023-04-01T22:13:01;4.82;;;2.28;;
39924;SDS011;25592;49.986;11.618;2023-04-01T22:16:05;6.57;;;2.75;;
39924;SDS011;25592;49.986;11.618;2023-04-01T22:25:14;2.50;;;1.50;;
39924;SDS011;25592;49.986;11.618;2023-04-01T22:28:27;3.22;;;2.05;;
39924;SDS011;25592;49.986;11.618;2023-04-01T22:31:28;3.35;;;1.80;;
39924;SDS011;25592;49.986;11.618;2023-04-01T22:37:45;3.15;;;1.48;;
39924;SDS011;25592;49.986;11.618;2023-04-01T22:40:56;3.15;;;1.83;;
39924;SDS011;25592;49.986;11.618;2023-04-01T22:43:54;2.70;;;1.38;;
39924;SDS011;25592;49.986;11.618;2023-04-01T22:47:00;3.08;;;1.50;;
39924;SDS011;25592;49.986;11.618;2023-04-01T22:52:50;2.28;;;1.75;;
39924;SDS011;25592;49.986;11.618;2023-04-01T22:55:52;2.53;;;1.55;;
39924;SDS011;25592;49.986;11.618;2023-04-01T22:58:42;3.25;;;1.70;;
39924;SDS011;25592;49.986;11.618;2023-04-01T23:01:36;1.90;;;1.15;;
39924;SDS011;25592;49.986;11.618;2023-04-01T23:04:35;2.95;;;1.40;;
39924;SDS011;25592;49.986;11.618;2023-04-01T23:13:35;4.03;;;1.52;;
39924;SDS011;25592;49.986;11.618;2023-04-01T23:16:32;2.30;;;1.30;;
39924;SDS011;25592;49.986;11.618;2023-04-01T23:25:36;2.53;;;1.40;;
39924;SDS011;25592;49.986;11.618;2023-04-01T23:28:39;3.38;;;1.42;;
39924;SDS011;25592;49.986;11.618;2023-04-01T23:34:55;1.52;;;1.02;;
39924;SDS011;25592;49.986;11.618;2023-04-01T23:37:43;3.30;;;1.20;;
39924;SDS011;25592;49.986;11.618;2023-04-01T23:40:28;2.08;;;1.20;;
39924;SDS011;25592;49.986;11.618;2023-04-01T23:43:14;2.28;;;1.25;;
39924;SDS011;25592;49.986;11.618;2023-04-01T23:46:15;2.30;;;1.33;;
39924;SDS011;25592;49.986;11.618;2023-04-01T23:49:02;2.80;;;1.52;;
39924;SDS011;25592;49.986;11.618;2023-04-01T23:51:58;3.67;;;1.60;;
39924;SDS011;25592;49.986;11.618;2023-04-01T23:54:55;3.45;;;1.58;;
39924;SDS011;25592;49.986;11.618;2023-04-01T23:58:00;4.22;;;1.67;;
